createdAt,value
2022-11-13T00:01:13.238Z,20.47
2022-11-13T00:03:42.763Z,18.60
2022-11-13T00:06:13.045Z,21.93
2022-11-13T00:08:42.857Z,20.50
2022-11-13T00:11:18.481Z,18.93
2022-11-13T00:13:48.269Z,19.17
2022-11-13T00:16:20.567Z,19.03
2022-11-13T00:18:50.675Z,17.83
2022-11-13T00:21:22.214Z,17.10
2022-11-13T00:23:51.984Z,20.40
2022-11-13T00:26:25.946Z,20.80
2022-11-13T00:28:56.623Z,20.10
2022-11-13T00:31:26.082Z,20.57
2022-11-13T00:34:14.004Z,20.50
2022-11-13T00:36:45.105Z,17.77
2022-11-13T00:39:14.509Z,17.63
2022-11-13T00:41:46.564Z,16.60
2022-11-13T00:44:15.976Z,15.70
2022-11-13T00:46:45.397Z,16.73
2022-11-13T00:49:16.422Z,16.10
2022-11-13T00:51:46.255Z,16.57
2022-11-13T00:54:15.655Z,16.47
2022-11-13T00:56:47.665Z,16.27
2022-11-13T00:59:17.026Z,15.17
2022-11-13T01:01:46.496Z,15.73
2022-11-13T01:04:15.979Z,16.53
2022-11-13T01:06:45.419Z,15.03
2022-11-13T01:09:14.823Z,14.70
2022-11-13T01:11:46.970Z,16.30
2022-11-13T01:14:16.343Z,15.80
2022-11-13T01:16:46.004Z,15.87
2022-11-13T01:19:16.528Z,16.30
2022-11-13T01:21:46.016Z,17.03
2022-11-13T01:24:15.391Z,14.90
2022-11-13T01:26:47.364Z,15.53
2022-11-13T01:29:16.759Z,14.43
2022-11-13T01:31:46.156Z,14.97
2022-11-13T01:34:15.540Z,13.97
2022-11-13T01:36:44.941Z,15.47
2022-11-13T01:39:14.440Z,16.63
2022-11-13T01:41:43.884Z,15.77
2022-11-13T01:44:19.654Z,19.60
2022-11-13T01:46:50.381Z,15.13
2022-11-13T01:49:30.150Z,16.60
2022-11-13T01:52:03.715Z,16.30
2022-11-13T01:54:35.214Z,16.90
2022-11-13T01:57:05.984Z,15.47
2022-11-13T01:59:41.474Z,14.63
2022-11-13T02:02:11.077Z,16.30
2022-11-13T02:04:40.503Z,15.50
2022-11-13T02:07:11.525Z,17.00
2022-11-13T02:09:43.352Z,16.00
2022-11-13T02:12:15.059Z,17.57
2022-11-13T02:14:50.124Z,19.13
2022-11-13T02:17:22.683Z,18.87
2022-11-13T02:19:55.757Z,17.67
2022-11-13T02:22:30.894Z,17.70
2022-11-13T02:25:03.308Z,19.10
2022-11-13T02:27:35.444Z,17.80
2022-11-13T02:30:16.266Z,18.30
2022-11-13T02:33:04.217Z,17.30
2022-11-13T02:35:35.909Z,16.87
2022-11-13T02:38:07.468Z,16.50
2022-11-13T02:40:39.582Z,17.23
2022-11-13T02:43:09.032Z,16.43
2022-11-13T02:45:38.649Z,17.10
2022-11-13T02:48:09.253Z,46.90
2022-11-13T02:50:40.040Z,25.80
2022-11-13T02:53:09.529Z,20.77
2022-11-13T02:55:41.601Z,20.17
2022-11-13T02:58:11.080Z,18.63
2022-11-13T03:00:40.464Z,17.20
2022-11-13T03:03:09.833Z,18.37
2022-11-13T03:05:39.224Z,16.63
2022-11-13T03:08:09.458Z,15.70
2022-11-13T03:10:41.461Z,17.03
2022-11-13T03:13:10.836Z,16.37
2022-11-13T03:15:40.249Z,16.23
2022-11-13T03:18:11.271Z,17.27
2022-11-13T03:20:41.913Z,16.57
2022-11-13T03:23:11.377Z,17.47
2022-11-13T03:25:43.483Z,16.90
2022-11-13T03:28:13.168Z,18.17
2022-11-13T03:30:42.606Z,18.03
2022-11-13T03:33:12.014Z,17.60
2022-11-13T03:35:46.521Z,18.13
2022-11-13T03:38:16.536Z,17.83
2022-11-13T03:40:48.548Z,17.07
2022-11-13T03:43:18.208Z,17.50
2022-11-13T03:45:48.863Z,18.57
2022-11-13T03:48:19.151Z,17.33
2022-11-13T03:50:50.313Z,18.10
2022-11-13T03:53:19.742Z,18.30
2022-11-13T03:55:51.729Z,19.40
2022-11-13T03:58:21.665Z,19.10
2022-11-13T04:00:51.236Z,17.67
2022-11-13T04:03:20.676Z,18.40
2022-11-13T04:05:50.821Z,17.57
2022-11-13T04:08:21.279Z,18.30
2022-11-13T04:10:53.319Z,17.53
2022-11-13T04:13:22.717Z,19.40
2022-11-13T04:15:52.145Z,17.23
2022-11-13T04:18:21.957Z,17.17
2022-11-13T04:20:51.385Z,16.20
2022-11-13T04:23:20.740Z,17.30
2022-11-13T04:25:53.955Z,18.43
2022-11-13T04:28:23.481Z,18.07
2022-11-13T04:30:52.924Z,17.77
2022-11-13T04:33:22.319Z,18.33
2022-11-13T04:35:52.021Z,17.03
2022-11-13T04:38:21.480Z,17.83
2022-11-13T04:41:15.052Z,17.40
2022-11-13T04:43:41.845Z,17.07
2022-11-13T04:46:11.479Z,17.47
2022-11-13T04:48:40.886Z,18.40
2022-11-13T04:51:10.275Z,18.20
2022-11-13T04:53:39.720Z,18.70
2022-11-13T04:56:11.871Z,17.20
2022-11-13T04:58:41.291Z,18.00
2022-11-13T05:01:10.742Z,17.83
2022-11-13T05:03:40.341Z,17.30
2022-11-13T05:06:11.534Z,16.93
2022-11-13T05:08:41.048Z,18.50
2022-11-13T05:11:13.039Z,17.70
2022-11-13T05:13:42.446Z,16.87
2022-11-13T05:16:13.640Z,17.77
2022-11-13T05:18:43.380Z,21.60
2022-11-13T05:21:12.983Z,19.50
2022-11-13T05:23:42.417Z,18.00
2022-11-13T05:26:15.729Z,17.67
2022-11-13T05:28:45.191Z,18.50
2022-11-13T05:31:15.928Z,17.30
2022-11-13T05:33:46.041Z,88.37
2022-11-13T05:36:17.761Z,29.27
2022-11-13T05:38:47.803Z,40.23
2022-11-13T05:41:21.401Z,27.50
2022-11-13T05:43:55.013Z,23.70
2022-11-13T05:46:28.932Z,16.13
2022-11-13T05:48:59.625Z,22.60
2022-11-13T05:51:30.769Z,18.30
2022-11-13T05:54:00.432Z,16.33
2022-11-13T05:56:33.864Z,17.70
2022-11-13T05:59:03.851Z,16.23
2022-11-13T06:01:35.088Z,18.00
2022-11-13T06:04:05.223Z,20.13
2022-11-13T06:06:35.149Z,18.50
2022-11-13T06:09:06.492Z,18.73
2022-11-13T06:11:38.711Z,18.50
2022-11-13T06:14:08.107Z,18.43
2022-11-13T06:16:39.765Z,17.77
2022-11-13T06:19:10.896Z,18.00
2022-11-13T06:21:41.790Z,18.37
2022-11-13T06:24:13.507Z,17.93
2022-11-13T06:26:45.537Z,18.20
2022-11-13T06:29:15.491Z,19.20
2022-11-13T06:31:45.068Z,19.30
2022-11-13T06:34:14.493Z,18.40
2022-11-13T06:36:43.870Z,17.63
2022-11-13T06:39:13.515Z,18.70
2022-11-13T06:41:45.701Z,18.63
2022-11-13T06:44:15.083Z,17.73
2022-11-13T06:46:44.445Z,18.97
2022-11-13T06:49:13.803Z,18.30
2022-11-13T06:51:43.201Z,19.27
2022-11-13T06:54:12.571Z,19.83
2022-11-13T06:56:45.545Z,18.00
2022-11-13T06:59:17.612Z,19.97
2022-11-13T07:01:47.002Z,19.70
2022-11-13T07:04:16.481Z,20.60
2022-11-13T07:06:45.900Z,21.20
2022-11-13T07:09:15.345Z,26.23
2022-11-13T07:11:44.769Z,24.07
2022-11-13T07:14:16.853Z,24.40
2022-11-13T07:17:08.049Z,21.90
2022-11-13T07:19:35.660Z,21.83
2022-11-13T07:22:05.032Z,23.23
2022-11-13T07:24:34.396Z,20.57
2022-11-13T07:27:03.829Z,22.00
2022-11-13T07:29:36.287Z,23.63
2022-11-13T07:32:05.692Z,22.70
2022-11-13T07:34:35.090Z,22.90
2022-11-13T07:37:06.504Z,23.07
2022-11-13T07:39:36.012Z,27.70
2022-11-13T07:42:05.396Z,26.03
2022-11-13T07:44:54.213Z,27.87
2022-11-13T07:47:24.278Z,26.67
2022-11-13T07:49:58.007Z,21.37
2022-11-13T07:52:33.259Z,22.20
2022-11-13T07:55:02.675Z,23.60
2022-11-13T07:57:32.051Z,20.93
2022-11-13T08:00:04.096Z,55.07
2022-11-13T08:02:33.609Z,38.80
2022-11-13T08:05:03.092Z,19.10
2022-11-13T08:07:32.474Z,19.90
2022-11-13T08:10:01.897Z,20.07
2022-11-13T08:12:31.267Z,24.30
2022-11-13T08:15:00.734Z,21.63
2022-11-13T08:17:32.844Z,18.63
2022-11-13T08:20:02.310Z,21.87
2022-11-13T08:22:32.793Z,23.90
2022-11-13T08:25:02.201Z,35.07
2022-11-13T08:27:31.616Z,20.17
2022-11-13T08:30:01.024Z,19.50
2022-11-13T08:32:33.145Z,20.53
2022-11-13T08:35:02.514Z,21.17
2022-11-13T08:37:31.902Z,20.17
2022-11-13T08:40:01.409Z,20.50
2022-11-13T08:42:30.923Z,18.53
2022-11-13T08:45:00.432Z,20.17
2022-11-13T08:47:30.535Z,20.50
2022-11-13T08:50:02.634Z,21.30
2022-11-13T08:52:32.085Z,21.07
2022-11-13T08:55:01.519Z,20.50
2022-11-13T08:57:31.061Z,21.60
2022-11-13T09:00:01.723Z,19.63
2022-11-13T09:02:31.389Z,21.40
2022-11-13T09:05:03.362Z,20.93
2022-11-13T09:07:32.799Z,21.90
2022-11-13T09:10:02.352Z,22.13
2022-11-13T09:12:31.892Z,19.43
2022-11-13T09:15:01.290Z,21.40
2022-11-13T09:17:30.779Z,20.63
2022-11-13T09:20:07.766Z,21.30
2022-11-13T09:22:39.385Z,21.47
2022-11-13T09:25:10.017Z,22.73
2022-11-13T09:27:39.519Z,21.03
2022-11-13T09:30:10.431Z,21.00
2022-11-13T09:32:39.895Z,19.97
2022-11-13T09:35:12.609Z,20.33
2022-11-13T09:37:42.036Z,21.13
2022-11-13T09:40:15.519Z,20.73
2022-11-13T09:42:45.009Z,19.43
2022-11-13T09:45:17.023Z,20.70
2022-11-13T09:47:47.553Z,20.60
2022-11-13T09:50:20.959Z,20.70
2022-11-13T09:52:52.094Z,21.43
2022-11-13T09:55:26.159Z,20.53
2022-11-13T09:58:00.787Z,19.53
2022-11-13T10:00:31.452Z,19.60
2022-11-13T10:03:46.090Z,20.00
2022-11-13T10:06:21.400Z,19.80
2022-11-13T10:08:54.861Z,19.33
2022-11-13T10:11:30.773Z,20.20
2022-11-13T10:14:03.905Z,21.97
2022-11-13T10:16:36.452Z,22.17
2022-11-13T10:19:14.121Z,20.70
2022-11-13T10:21:54.816Z,20.03
2022-11-13T10:24:30.984Z,19.50
2022-11-13T10:27:01.694Z,17.97
2022-11-13T10:29:32.352Z,19.77
2022-11-13T10:32:01.977Z,20.67
2022-11-13T10:34:33.227Z,21.07
2022-11-13T10:37:22.168Z,20.80
2022-11-13T10:39:51.556Z,22.40
2022-11-13T10:42:25.922Z,21.53
2022-11-13T10:44:57.879Z,22.90
2022-11-13T10:48:01.945Z,24.13
2022-11-13T10:50:24.971Z,22.47
2022-11-13T10:52:58.196Z,22.30
2022-11-13T10:55:32.377Z,22.37
2022-11-13T10:58:04.234Z,21.43
2022-11-13T11:00:35.891Z,19.90
2022-11-13T11:03:05.394Z,20.43
2022-11-13T11:05:34.905Z,20.97
2022-11-13T11:08:11.898Z,19.90
2022-11-13T11:11:02.734Z,20.30
2022-11-13T11:13:29.651Z,17.63
2022-11-13T11:16:01.457Z,20.03
2022-11-13T11:18:33.283Z,19.10
2022-11-13T11:21:05.260Z,20.07
2022-11-13T11:23:42.585Z,19.00
2022-11-13T11:26:17.389Z,19.33
2022-11-13T11:28:49.605Z,19.40
2022-11-13T11:31:23.532Z,19.30
2022-11-13T11:33:56.176Z,20.60
2022-11-13T11:36:31.578Z,19.27
2022-11-13T11:39:09.305Z,18.17
2022-11-13T11:41:43.728Z,18.33
2022-11-13T11:44:19.793Z,17.50
2022-11-13T11:46:49.256Z,30.20
2022-11-13T11:49:18.819Z,50.43
2022-11-13T11:51:55.651Z,60.40
2022-11-13T11:54:34.810Z,23.43
2022-11-13T11:57:13.785Z,25.40
2022-11-13T11:59:59.452Z,19.40
2022-11-13T12:02:51.428Z,17.83
2022-11-13T12:05:26.152Z,15.53
2022-11-13T12:08:05.689Z,17.27
2022-11-13T12:10:43.069Z,18.40
2022-11-13T12:13:20.728Z,16.30
2022-11-13T12:15:52.741Z,13.73
2022-11-13T12:18:30.783Z,15.30
2022-11-13T12:21:08.586Z,13.63
2022-11-13T12:23:47.644Z,13.40
2022-11-13T12:26:24.362Z,13.40
2022-11-13T12:29:00.637Z,12.30
2022-11-13T12:31:41.754Z,13.63
2022-11-13T12:34:28.244Z,13.03
2022-11-13T12:36:57.989Z,12.70
2022-11-13T12:39:36.947Z,13.13
2022-11-13T12:42:16.349Z,13.63
2022-11-13T12:44:50.803Z,14.70
2022-11-13T12:47:23.177Z,14.27
2022-11-13T12:50:02.513Z,15.13
2022-11-13T12:52:32.077Z,21.57
2022-11-13T12:55:10.372Z,22.73
2022-11-13T12:57:49.993Z,14.20
2022-11-13T13:00:28.876Z,23.97
2022-11-13T13:03:10.508Z,34.33
2022-11-13T13:06:00.453Z,20.27
2022-11-13T13:08:42.799Z,21.30
2022-11-13T13:11:19.723Z,17.00
2022-11-13T13:13:58.043Z,24.33
2022-11-13T13:16:29.752Z,15.57
2022-11-13T13:19:10.030Z,12.80
2022-11-13T13:21:44.461Z,16.50
2022-11-13T13:24:38.813Z,15.40
2022-11-13T13:27:24.321Z,17.37
2022-11-13T13:29:56.387Z,16.23
2022-11-13T13:32:30.773Z,14.17
2022-11-13T13:35:07.329Z,16.80
2022-11-13T13:37:43.171Z,16.40
2022-11-13T13:40:19.500Z,13.83
2022-11-13T13:42:58.257Z,15.03
2022-11-13T13:45:38.109Z,21.20
2022-11-13T13:48:12.336Z,13.87
2022-11-13T13:50:43.993Z,12.50
2022-11-13T13:53:15.166Z,14.50
2022-11-13T13:55:48.543Z,16.70
2022-11-13T13:58:20.039Z,21.00
2022-11-13T14:01:20.585Z,17.50
2022-11-13T14:03:50.019Z,15.80
2022-11-13T14:06:23.859Z,12.70
2022-11-13T14:08:53.334Z,17.50
2022-11-13T14:11:26.851Z,20.23
2022-11-13T14:13:56.347Z,28.33
2022-11-13T14:16:28.379Z,27.73
2022-11-13T14:19:06.186Z,48.33
2022-11-13T14:21:35.864Z,78.90
2022-11-13T14:24:05.506Z,32.03
2022-11-13T14:26:35.004Z,37.23
2022-11-13T14:29:05.615Z,15.37
2022-11-13T14:31:38.274Z,28.47
2022-11-13T14:34:12.600Z,25.17
2022-11-13T14:36:42.496Z,15.70
2022-11-13T14:39:20.775Z,23.50
2022-11-13T14:41:52.833Z,19.37
2022-11-13T14:44:31.966Z,22.90
2022-11-13T14:47:06.432Z,30.07
2022-11-13T14:49:38.287Z,37.33
2022-11-13T14:52:07.924Z,61.13
2022-11-13T14:55:14.051Z,40.77
2022-11-13T14:57:27.951Z,24.83
2022-11-13T14:59:57.465Z,32.37
2022-11-13T15:02:29.528Z,32.10
2022-11-13T15:04:59.042Z,27.20
2022-11-13T15:07:31.907Z,21.57
2022-11-13T15:10:02.045Z,44.60
2022-11-13T15:12:31.554Z,29.13
2022-11-13T15:15:01.042Z,32.83
2022-11-13T15:17:33.485Z,22.20
2022-11-13T15:20:09.268Z,21.50
2022-11-13T15:22:39.528Z,22.40
2022-11-13T15:25:15.774Z,21.57
2022-11-13T15:27:45.278Z,21.50
2022-11-13T15:30:15.496Z,20.20
2022-11-13T15:32:49.254Z,21.53
2022-11-13T15:35:20.667Z,19.10
2022-11-13T15:37:50.170Z,40.37
2022-11-13T15:40:20.329Z,51.43
2022-11-13T15:42:49.801Z,82.93
2022-11-13T15:45:20.099Z,21.90
2022-11-13T15:47:52.215Z,20.53
2022-11-13T15:50:22.158Z,51.33
2022-11-13T15:52:53.344Z,12.30
2022-11-13T15:55:28.379Z,29.60
2022-11-13T15:57:58.710Z,31.67
2022-11-13T16:00:29.777Z,25.13
2022-11-13T16:03:04.391Z,24.97
2022-11-13T16:05:33.902Z,17.80
2022-11-13T16:08:03.414Z,14.67
2022-11-13T16:10:32.885Z,12.50
2022-11-13T16:13:03.518Z,10.30
2022-11-13T16:15:33.034Z,10.00
2022-11-13T16:18:05.183Z,7.70
2022-11-13T16:20:34.712Z,6.40
2022-11-13T16:23:04.192Z,8.10
2022-11-13T16:25:33.762Z,7.87
2022-11-13T16:28:03.363Z,8.00
2022-11-13T16:30:32.807Z,7.20
2022-11-13T16:33:07.979Z,7.67
2022-11-13T16:35:37.568Z,7.13
2022-11-13T16:38:13.564Z,6.70
2022-11-13T16:40:45.560Z,6.77
2022-11-13T16:43:16.588Z,6.57
2022-11-13T16:45:46.193Z,6.47
2022-11-13T16:48:18.744Z,6.17
2022-11-13T16:50:48.262Z,6.67
2022-11-13T16:53:17.739Z,6.80
2022-11-13T16:55:47.265Z,6.60
2022-11-13T16:58:16.906Z,6.17
2022-11-13T17:00:46.329Z,5.67
2022-11-13T17:03:18.333Z,64.70
2022-11-13T17:05:47.856Z,13.57
2022-11-13T17:08:17.301Z,16.80
2022-11-13T17:10:46.867Z,11.60
2022-11-13T17:13:16.509Z,8.60
2022-11-13T17:15:45.951Z,6.13
2022-11-13T17:18:18.730Z,6.53
2022-11-13T17:20:48.270Z,9.30
2022-11-13T17:23:18.046Z,9.40
2022-11-13T17:25:47.857Z,6.30
2022-11-13T17:28:17.251Z,6.77
2022-11-13T17:30:46.787Z,6.80
2022-11-13T17:33:18.899Z,9.50
2022-11-13T17:35:48.528Z,7.30
2022-11-13T17:38:18.069Z,6.70
2022-11-13T17:40:47.578Z,5.87
2022-11-13T17:43:17.087Z,6.73
2022-11-13T17:45:46.648Z,5.80
2022-11-13T17:48:18.705Z,5.27
2022-11-13T17:50:48.359Z,5.43
2022-11-13T17:53:17.831Z,5.80
2022-11-13T17:55:55.600Z,5.40
2022-11-13T17:58:25.355Z,6.70
2022-11-13T18:00:55.484Z,7.97
2022-11-13T18:03:27.771Z,6.03
2022-11-13T18:05:57.454Z,5.87
2022-11-13T18:08:27.015Z,7.30
2022-11-13T18:10:56.461Z,6.73
2022-11-13T18:13:26.305Z,5.40
2022-11-13T18:15:55.969Z,5.83
2022-11-13T18:18:28.086Z,5.90
2022-11-13T18:20:57.606Z,5.87
2022-11-13T18:23:27.341Z,6.13
2022-11-13T18:25:57.093Z,7.40
2022-11-13T18:28:26.469Z,5.87
2022-11-13T18:30:56.785Z,5.20
2022-11-13T18:33:29.276Z,6.90
2022-11-13T18:35:58.916Z,5.70
2022-11-13T18:38:28.395Z,5.50
2022-11-13T18:41:03.213Z,5.83
2022-11-13T18:43:32.630Z,6.40
2022-11-13T18:46:04.595Z,4.90
2022-11-13T18:48:38.810Z,6.00
2022-11-13T18:51:10.677Z,5.70
2022-11-13T18:53:40.448Z,5.67
2022-11-13T18:56:13.344Z,5.67
2022-11-13T18:58:44.361Z,6.13
2022-11-13T19:01:21.553Z,6.70
2022-11-13T19:04:16.615Z,6.40
2022-11-13T19:06:45.755Z,7.70
2022-11-13T19:09:17.303Z,6.67
2022-11-13T19:11:47.537Z,5.80
2022-11-13T19:14:17.906Z,7.93
2022-11-13T19:16:47.323Z,7.40
2022-11-13T19:19:21.697Z,6.43
2022-11-13T19:21:52.187Z,6.67
2022-11-13T19:24:21.776Z,7.63
2022-11-13T19:26:51.389Z,6.57
2022-11-13T19:29:20.921Z,6.33
2022-11-13T19:31:53.586Z,6.63
2022-11-13T19:34:25.680Z,6.03
2022-11-13T19:36:55.135Z,6.40
2022-11-13T19:39:24.915Z,7.63
2022-11-13T19:41:54.347Z,6.43
2022-11-13T19:44:23.836Z,6.80
2022-11-13T19:46:53.521Z,7.83
2022-11-13T19:49:25.567Z,7.40
2022-11-13T19:51:56.221Z,7.70
2022-11-13T19:54:25.670Z,7.17
2022-11-13T19:56:55.152Z,6.80
2022-11-13T19:59:24.568Z,7.83
2022-11-13T20:01:54.053Z,8.13
2022-11-13T20:04:26.180Z,8.07
2022-11-13T20:06:55.711Z,9.73
2022-11-13T20:09:25.146Z,9.50
2022-11-13T20:11:54.555Z,8.53
2022-11-13T20:14:23.979Z,9.33
2022-11-13T20:16:53.491Z,10.27
2022-11-13T20:19:23.018Z,10.40
2022-11-13T20:21:55.089Z,11.40
2022-11-13T20:24:24.603Z,16.00
2022-11-13T20:26:54.065Z,11.17
2022-11-13T20:29:23.551Z,11.80
2022-11-13T20:31:52.987Z,11.60
2022-11-13T20:34:22.545Z,12.17
2022-11-13T20:36:51.984Z,11.43
2022-11-13T20:39:24.068Z,12.10
2022-11-13T20:41:53.604Z,12.00
2022-11-13T20:44:23.068Z,12.23
2022-11-13T20:46:52.580Z,13.73
2022-11-13T20:49:23.623Z,14.33
2022-11-13T20:51:56.989Z,14.33
2022-11-13T20:54:29.404Z,15.60
2022-11-13T20:56:58.912Z,14.53
2022-11-13T20:59:28.444Z,14.33
2022-11-13T21:01:57.956Z,16.00
2022-11-13T21:04:27.408Z,15.77
2022-11-13T21:06:57.013Z,15.87
2022-11-13T21:09:29.076Z,15.80
2022-11-13T21:11:58.583Z,16.93
2022-11-13T21:14:28.106Z,16.80
2022-11-13T21:16:57.636Z,16.03
2022-11-13T21:19:27.430Z,16.67
2022-11-13T21:21:56.901Z,16.37
2022-11-13T21:24:28.901Z,18.37
2022-11-13T21:26:58.359Z,17.33
2022-11-13T21:29:27.789Z,17.37
2022-11-13T21:31:57.360Z,17.27
2022-11-13T21:34:26.855Z,19.73
2022-11-13T21:36:56.284Z,18.93
2022-11-13T21:39:25.707Z,17.97
2022-11-13T21:41:57.856Z,18.67
2022-11-13T21:44:27.268Z,18.93
2022-11-13T21:46:57.055Z,18.37
2022-11-13T21:49:26.616Z,17.97
2022-11-13T21:51:56.108Z,18.20
2022-11-13T21:54:25.624Z,20.17
2022-11-13T21:56:57.671Z,19.70
2022-11-13T21:59:27.200Z,19.60
2022-11-13T22:01:56.722Z,20.13
2022-11-13T22:04:26.236Z,21.83
2022-11-13T22:06:55.952Z,19.90
2022-11-13T22:09:27.295Z,20.80
2022-11-13T22:11:59.339Z,19.60
2022-11-13T22:14:28.829Z,19.00
2022-11-13T22:16:58.322Z,20.67
2022-11-13T22:19:31.099Z,20.27
2022-11-13T22:22:03.146Z,19.67
2022-11-13T22:24:32.677Z,20.33
2022-11-13T22:27:04.746Z,18.50
2022-11-13T22:29:34.151Z,20.87
2022-11-13T22:32:03.701Z,20.70
2022-11-13T22:34:33.172Z,21.43
2022-11-13T22:37:02.752Z,20.40
2022-11-13T22:39:32.309Z,20.37
2022-11-13T22:42:04.381Z,21.00
2022-11-13T22:44:54.289Z,20.97
2022-11-13T22:47:23.342Z,21.07
2022-11-13T22:49:52.840Z,22.57
2022-11-13T22:52:22.363Z,21.43
2022-11-13T22:54:51.860Z,20.37
2022-11-13T22:57:23.904Z,20.60
2022-11-13T22:59:53.405Z,20.03
2022-11-13T23:02:22.901Z,21.30
2022-11-13T23:04:52.328Z,21.23
2022-11-13T23:07:21.907Z,21.57
2022-11-13T23:09:51.441Z,20.30
2022-11-13T23:12:21.020Z,22.30
2022-11-13T23:14:53.019Z,41.10
2022-11-13T23:17:22.516Z,44.03
2022-11-13T23:19:52.116Z,24.70
2022-11-13T23:22:21.515Z,37.73
2022-11-13T23:24:50.940Z,27.13
2022-11-13T23:27:20.421Z,21.60
2022-11-13T23:29:50.420Z,26.47
2022-11-13T23:32:22.625Z,22.93
2022-11-13T23:34:59.312Z,21.93
2022-11-13T23:37:29.428Z,21.40
2022-11-13T23:39:58.917Z,22.60
2022-11-13T23:42:53.668Z,21.60
2022-11-13T23:45:18.417Z,21.37
2022-11-13T23:47:50.498Z,23.33
2022-11-13T23:50:20.096Z,21.50
2022-11-13T23:52:50.308Z,21.07
2022-11-13T23:55:21.254Z,22.47
2022-11-13T23:57:51.026Z,22.80
